Time;durP1;ratioP1;P1;durP2;ratioP2;P2;SDS_P1;SDS_P2;PMS_P1;PMS_P2;Temp;Humidity;BMP_temperature;BMP_pressure;BME280_temperature;BME280_humidity;BME280_pressure;Samples;Min_cycle;Max_cycle;Signal;HPM_P1;HPM_P2
2021/04/24 00:01:43;;;;;;;1999.90;999.90;;;7.60;99.90;;;;;;5104886;28;20486;-89
2021/04/24 00:04:10;;;;;;;1999.90;999.90;;;7.60;99.90;;;;;;5111625;28;20147;-89
2021/04/24 00:06:37;;;;;;;1999.90;999.90;;;7.60;99.90;;;;;;5107227;28;20043;-90
2021/04/24 00:09:05;;;;;;;1999.90;999.90;;;7.50;99.90;;;;;;5101575;28;20074;-89
2021/04/24 00:11:34;;;;;;;1999.90;999.90;;;7.50;99.90;;;;;;5097725;28;20129;-89
2021/04/24 00:14:02;;;;;;;1999.90;999.90;;;7.50;99.90;;;;;;5099451;28;20055;-89
2021/04/24 00:16:29;;;;;;;1999.90;999.90;;;7.40;99.90;;;;;;5112765;28;20044;-90
2021/04/24 00:18:57;;;;;;;1999.90;999.90;;;7.50;99.90;;;;;;5101637;28;20060;-89
2021/04/24 00:21:25;;;;;;;1999.90;999.90;;;7.40;99.90;;;;;;5106944;28;20055;-90
2021/04/24 00:23:53;;;;;;;1999.90;999.90;;;7.40;99.90;;;;;;5110711;28;20513;-90
2021/04/24 00:26:19;;;;;;;1999.90;999.90;;;7.40;99.90;;;;;;5113688;28;20051;-91
2021/04/24 00:28:49;;;;;;;1999.90;999.90;;;7.30;99.90;;;;;;5110306;28;20070;-91
2021/04/24 00:31:17;;;;;;;1999.90;999.90;;;7.30;99.90;;;;;;5110204;28;20115;-92
2021/04/24 00:33:44;;;;;;;1999.90;999.90;;;7.30;99.90;;;;;;5108884;28;20047;-92
2021/04/24 00:36:12;;;;;;;1999.90;999.90;;;7.20;99.90;;;;;;5112856;28;20071;-89
2021/04/24 00:38:41;;;;;;;1999.90;999.90;;;7.20;99.90;;;;;;5114188;28;20059;-89
2021/04/24 00:41:10;;;;;;;1999.90;999.90;;;7.20;99.90;;;;;;5108538;28;20075;-89
2021/04/24 00:43:37;;;;;;;1999.90;999.90;;;7.20;99.90;;;;;;5100643;28;20443;-89
2021/04/24 00:46:12;;;;;;;1999.90;999.90;;;7.10;99.90;;;;;;5112389;28;20062;-89
2021/04/24 00:48:40;;;;;;;1999.90;999.90;;;7.10;99.90;;;;;;5107548;28;20051;-89
2021/04/24 00:51:08;;;;;;;1999.90;999.90;;;7.00;99.90;;;;;;5100829;28;20072;-89
2021/04/24 00:53:36;;;;;;;1999.90;999.90;;;7.00;99.90;;;;;;5107933;28;20040;-90
2021/04/24 00:56:04;;;;;;;1999.90;999.90;;;7.00;99.90;;;;;;5114803;28;20090;-89
2021/04/24 00:58:33;;;;;;;1999.90;999.90;;;6.90;99.90;;;;;;5102851;28;20089;-89
2021/04/24 01:01:00;;;;;;;1999.90;999.90;;;6.90;99.90;;;;;;5112712;28;20052;-90
2021/04/24 01:03:28;;;;;;;1999.90;999.90;;;6.90;99.90;;;;;;5113462;28;20039;-89
2021/04/24 01:05:55;;;;;;;1999.90;999.90;;;6.80;99.90;;;;;;5113778;28;20051;-89
2021/04/24 01:08:22;;;;;;;1999.90;999.90;;;6.80;99.90;;;;;;5100561;28;20134;-89
2021/04/24 01:10:50;;;;;;;1999.90;999.90;;;6.80;99.90;;;;;;5111032;28;20047;-89
2021/04/24 01:13:17;;;;;;;1999.90;999.90;;;6.70;99.90;;;;;;5101555;28;20071;-89
2021/04/24 01:15:44;;;;;;;1999.90;999.90;;;6.70;99.90;;;;;;5113022;28;20047;-89
2021/04/24 01:18:12;;;;;;;1999.90;999.90;;;6.70;99.90;;;;;;5111697;28;20074;-89
2021/04/24 01:20:41;;;;;;;1999.90;999.90;;;6.60;99.90;;;;;;5106176;28;20344;-89
2021/04/24 01:23:09;;;;;;;1999.90;999.90;;;6.60;99.90;;;;;;5113295;28;20440;-90
2021/04/24 01:25:38;;;;;;;1999.90;999.90;;;6.60;99.90;;;;;;5114312;28;20104;-96
2021/04/24 01:28:06;;;;;;;1999.90;999.90;;;6.60;99.90;;;;;;5116683;28;20111;-96
2021/04/24 01:30:37;;;;;;;1999.90;999.90;;;6.50;99.90;;;;;;5116420;28;20485;-96
2021/04/24 01:33:07;;;;;;;1999.90;999.90;;;6.50;99.90;;;;;;5117063;28;20047;-95
2021/04/24 01:35:35;;;;;;;1999.90;999.90;;;6.50;99.90;;;;;;5118086;28;20473;-95
2021/04/24 01:38:02;;;;;;;1999.90;999.90;;;6.50;99.90;;;;;;5118464;28;20108;-96
2021/04/24 01:40:30;;;;;;;1999.90;999.90;;;6.50;99.90;;;;;;5115831;28;20074;-96
2021/04/24 01:42:58;;;;;;;1999.90;999.90;;;6.40;99.90;;;;;;5115075;28;20051;-96
2021/04/24 01:45:26;;;;;;;1999.90;999.90;;;6.40;99.90;;;;;;5115303;28;20054;-96
2021/04/24 01:47:54;;;;;;;1999.90;999.90;;;6.40;99.90;;;;;;5115622;28;20052;-95
2021/04/24 01:50:24;;;;;;;1999.90;999.90;;;6.40;99.90;;;;;;5115429;28;20052;-95
2021/04/24 01:52:53;;;;;;;1999.90;999.90;;;6.30;99.90;;;;;;5115177;28;20051;-95
2021/04/24 01:55:22;;;;;;;1999.90;999.90;;;6.30;99.90;;;;;;5115742;28;20075;-95
2021/04/24 01:57:52;;;;;;;1999.90;999.90;;;6.30;99.90;;;;;;5115389;28;20051;-95
2021/04/24 02:00:27;;;;;;;1999.90;999.90;;;6.30;99.90;;;;;;5115235;28;20052;-95
2021/04/24 02:02:55;;;;;;;1999.90;999.90;;;6.20;99.90;;;;;;5117547;28;20051;-95
2021/04/24 02:05:23;;;;;;;1999.90;999.90;;;6.20;99.90;;;;;;5119129;28;20059;-95
2021/04/24 02:07:54;;;;;;;1999.90;999.90;;;6.10;99.90;;;;;;5119260;28;20070;-95
2021/04/24 02:10:22;;;;;;;1999.90;999.90;;;6.10;99.90;;;;;;5118849;28;20044;-95
2021/04/24 02:12:50;;;;;;;1999.90;999.90;;;6.10;99.90;;;;;;5118551;28;20493;-94
2021/04/24 02:15:17;;;;;;;1999.90;999.90;;;6.10;99.90;;;;;;5118738;28;20044;-95
2021/04/24 02:17:45;;;;;;;1999.90;999.90;;;6.10;99.90;;;;;;5118816;28;20130;-95
2021/04/24 02:20:13;;;;;;;1999.90;999.90;;;6.00;99.90;;;;;;5118574;28;20050;-95
2021/04/24 02:22:41;;;;;;;1999.90;999.90;;;6.00;99.90;;;;;;5118786;28;20043;-95
2021/04/24 02:25:12;;;;;;;1999.90;999.90;;;6.00;99.90;;;;;;5118152;28;20081;-95
2021/04/24 02:27:39;;;;;;;1999.90;999.90;;;6.00;99.90;;;;;;5119177;28;20134;-96
2021/04/24 02:30:09;;;;;;;1999.90;999.90;;;5.90;99.90;;;;;;5118162;28;20143;-95
2021/04/24 02:32:37;;;;;;;1999.90;999.90;;;5.90;99.90;;;;;;5118675;28;20138;-95
2021/04/24 02:35:06;;;;;;;1999.90;999.90;;;5.90;99.90;;;;;;5119104;28;20059;-95
2021/04/24 02:37:34;;;;;;;1999.90;999.90;;;5.80;99.90;;;;;;5118739;28;20139;-95
2021/04/24 02:40:03;;;;;;;1999.90;999.90;;;5.80;99.90;;;;;;5123858;28;20055;-95
2021/04/24 02:42:31;;;;;;;1999.90;999.90;;;5.80;99.90;;;;;;5128433;28;20067;-95
2021/04/24 02:45:05;;;;;;;1999.90;999.90;;;5.70;99.90;;;;;;5122982;28;20058;-95
2021/04/24 02:47:33;;;;;;;1999.90;999.90;;;5.70;99.90;;;;;;5118687;28;20134;-96
2021/04/24 02:50:03;;;;;;;1999.90;999.90;;;5.70;99.90;;;;;;5118268;28;20075;-96
2021/04/24 02:52:30;;;;;;;1999.90;999.90;;;5.70;99.90;;;;;;5118252;28;20069;-95
2021/04/24 02:54:58;;;;;;;1999.90;999.90;;;5.70;99.90;;;;;;5118625;28;20047;-95
2021/04/24 02:57:25;;;;;;;1999.90;999.90;;;5.60;99.90;;;;;;5118616;28;20082;-95
2021/04/24 02:59:52;;;;;;;1999.90;999.90;;;5.60;99.90;;;;;;5118756;28;20474;-95
2021/04/24 03:02:19;;;;;;;1999.90;999.90;;;5.60;99.90;;;;;;5118009;28;20098;-95
2021/04/24 03:04:47;;;;;;;1999.90;999.90;;;5.50;99.90;;;;;;5117851;28;20473;-95
2021/04/24 03:07:14;;;;;;;1999.90;999.90;;;5.50;99.90;;;;;;5117740;28;20540;-95
2021/04/24 03:09:41;;;;;;;1999.90;999.90;;;5.50;99.90;;;;;;5117955;28;20104;-95
2021/04/24 03:12:09;;;;;;;1999.90;999.90;;;5.40;99.90;;;;;;5117606;28;20096;-95
2021/04/24 03:14:36;;;;;;;1999.90;999.90;;;5.40;99.90;;;;;;5116925;28;20075;-95
2021/04/24 03:17:03;;;;;;;1999.90;999.90;;;5.40;99.90;;;;;;5117736;28;20071;-95
2021/04/24 03:19:30;;;;;;;1999.90;999.90;;;5.30;99.90;;;;;;5117701;28;20138;-95
2021/04/24 03:21:58;;;;;;;1999.90;999.90;;;5.30;99.90;;;;;;5117740;28;20486;-95
2021/04/24 03:24:25;;;;;;;1999.90;999.90;;;5.30;99.90;;;;;;5117150;28;20448;-95
2021/04/24 03:26:52;;;;;;;1999.90;999.90;;;5.20;99.90;;;;;;5117695;28;20536;-95
2021/04/24 03:29:20;;;;;;;1999.90;999.90;;;5.20;99.90;;;;;;5117832;28;20168;-95
2021/04/24 03:31:47;;;;;;;1999.90;999.90;;;5.20;99.90;;;;;;5116840;28;20081;-94
2021/04/24 03:34:15;;;;;;;1999.90;999.90;;;5.20;99.90;;;;;;5117033;28;20460;-95
2021/04/24 03:36:42;;;;;;;1999.90;999.90;;;5.10;99.90;;;;;;5117184;28;20104;-96
2021/04/24 03:39:10;;;;;;;1999.90;999.90;;;5.20;99.90;;;;;;5116586;28;20127;-96
2021/04/24 03:41:37;;;;;;;1999.90;999.90;;;5.10;99.90;;;;;;5116856;28;20380;-95
2021/04/24 03:44:05;;;;;;;1999.90;999.90;;;5.10;99.90;;;;;;5115163;28;20106;-89
2021/04/24 03:46:31;;;;;;;1999.90;999.90;;;5.10;99.90;;;;;;5115112;28;20542;-89
2021/04/24 03:48:59;;;;;;;1999.90;999.90;;;5.00;99.90;;;;;;5123702;28;20048;-88
2021/04/24 03:51:26;;;;;;;1999.90;999.90;;;5.00;99.90;;;;;;5133611;28;20069;-90
2021/04/24 03:53:53;;;;;;;1999.90;999.90;;;5.00;99.90;;;;;;5133502;28;20107;-89
2021/04/24 03:56:20;;;;;;;1999.90;999.90;;;5.00;99.90;;;;;;5132936;28;20113;-88
2021/04/24 03:58:47;;;;;;;1999.90;999.90;;;5.00;99.90;;;;;;5129415;28;20054;-89
2021/04/24 04:01:15;;;;;;;1999.90;999.90;;;4.90;99.90;;;;;;5122436;28;20043;-89
2021/04/24 04:03:43;;;;;;;1999.90;999.90;;;4.90;99.90;;;;;;5121517;28;20047;-89
2021/04/24 04:06:11;;;;;;;1999.90;999.90;;;4.90;99.90;;;;;;5117585;28;20059;-89
2021/04/24 04:08:38;;;;;;;1999.90;999.90;;;4.90;99.90;;;;;;5116439;28;20078;-88
2021/04/24 04:11:05;;;;;;;1999.90;999.90;;;4.90;99.90;;;;;;5122633;28;20089;-89
2021/04/24 04:13:32;;;;;;;1999.90;999.90;;;4.90;99.90;;;;;;5121894;28;20075;-90
2021/04/24 04:15:59;;;;;;;1999.90;999.90;;;4.80;99.90;;;;;;5113479;28;20068;-88
2021/04/24 04:18:26;;;;;;;1999.90;999.90;;;4.80;99.90;;;;;;5122620;28;20075;-89
2021/04/24 04:20:55;;;;;;;1999.90;999.90;;;4.80;99.90;;;;;;5114335;28;20138;-89
2021/04/24 04:23:23;;;;;;;1999.90;999.90;;;4.80;99.90;;;;;;5117272;28;20069;-89
2021/04/24 04:25:51;;;;;;;1999.90;999.90;;;4.80;99.90;;;;;;5112741;28;20050;-89
2021/04/24 04:28:20;;;;;;;1999.90;999.90;;;4.80;99.90;;;;;;5106707;28;20051;-89
2021/04/24 04:30:49;;;;;;;1999.90;999.90;;;4.80;99.90;;;;;;5111770;28;20047;-89
2021/04/24 04:33:16;;;;;;;1999.90;999.90;;;4.70;99.90;;;;;;5108085;28;20070;-88
2021/04/24 04:35:44;;;;;;;1999.90;999.90;;;4.80;99.90;;;;;;5108696;28;20048;-89
2021/04/24 04:38:11;;;;;;;1999.90;999.90;;;4.70;99.90;;;;;;5103805;28;20059;-89
2021/04/24 04:40:38;;;;;;;1999.90;999.90;;;4.70;99.90;;;;;;5104859;28;20082;-89
2021/04/24 04:43:06;;;;;;;1999.90;999.90;;;4.70;99.90;;;;;;5113088;28;20470;-88
2021/04/24 04:45:33;;;;;;;1999.90;999.90;;;4.70;99.90;;;;;;5114339;28;20071;-89
2021/04/24 04:48:06;;;;;;;1999.90;999.90;;;4.70;99.90;;;;;;5112218;28;20138;-89
2021/04/24 04:50:36;;;;;;;1999.90;999.90;;;4.70;99.90;;;;;;5105226;28;20040;-89
2021/04/24 04:53:03;;;;;;;1999.90;999.90;;;4.70;99.90;;;;;;5101512;28;20044;-89
2021/04/24 04:55:31;;;;;;;1999.90;999.90;;;4.60;99.90;;;;;;5112385;28;20055;-89
2021/04/24 04:57:58;;;;;;;1999.90;999.90;;;4.60;99.90;;;;;;5115761;28;20043;-95
2021/04/24 05:00:26;;;;;;;1999.90;999.90;;;4.60;99.90;;;;;;5118648;28;20075;-95
2021/04/24 05:02:53;;;;;;;1999.90;999.90;;;4.70;99.90;;;;;;5114884;28;20100;-91
2021/04/24 05:05:22;;;;;;;1999.90;999.90;;;4.70;99.90;;;;;;5100834;28;20482;-92
2021/04/24 05:07:49;;;;;;;1999.90;999.90;;;4.70;99.90;;;;;;5106995;28;20055;-91
2021/04/24 05:10:22;;;;;;;1999.90;999.90;;;4.60;99.90;;;;;;5113885;28;20725;-91
2021/04/24 05:12:49;;;;;;;1999.90;999.90;;;4.70;99.90;;;;;;5102337;28;20045;-91
2021/04/24 05:15:16;;;;;;;1999.90;999.90;;;4.70;99.90;;;;;;5097003;28;20131;-91
2021/04/24 05:17:43;;;;;;;1999.90;999.90;;;4.80;99.90;;;;;;5101537;28;20044;-91
2021/04/24 05:20:12;;;;;;;1999.90;999.90;;;4.80;99.90;;;;;;5106153;28;20120;-91
2021/04/24 05:22:40;;;;;;;1999.90;999.90;;;4.80;99.90;;;;;;5110266;28;20053;-91
2021/04/24 05:25:08;;;;;;;1999.90;999.90;;;4.80;99.90;;;;;;5109298;28;20072;-91
2021/04/24 05:27:36;;;;;;;1999.90;999.90;;;4.90;99.90;;;;;;5110517;28;20101;-91
2021/04/24 05:30:05;;;;;;;1999.90;999.90;;;4.90;99.90;;;;;;5102118;28;20091;-89
2021/04/24 05:32:35;;;;;;;1999.90;999.90;;;4.90;99.90;;;;;;5109261;28;20062;-88
2021/04/24 05:35:03;;;;;;;1999.90;999.90;;;5.00;99.90;;;;;;5103964;28;20131;-89
2021/04/24 05:37:30;;;;;;;1999.90;999.90;;;5.00;99.90;;;;;;5096795;28;20048;-89
2021/04/24 05:39:58;;;;;;;1999.90;999.90;;;5.00;99.90;;;;;;5111360;28;20087;-89
2021/04/24 05:42:30;;;;;;;1999.90;999.90;;;5.00;99.90;;;;;;5121991;28;20044;-91
2021/04/24 05:44:58;;;;;;;1999.90;999.90;;;5.00;99.90;;;;;;5131586;28;20193;-91
2021/04/24 05:47:25;;;;;;;1999.90;999.90;;;5.10;99.90;;;;;;5135659;28;20132;-91
2021/04/24 05:49:52;;;;;;;1999.90;999.90;;;5.10;99.90;;;;;;5123327;28;20075;-95
2021/04/24 05:52:19;;;;;;;1999.90;999.90;;;5.20;99.90;;;;;;5122524;28;20052;-96
2021/04/24 05:54:47;;;;;;;1999.90;999.90;;;5.20;99.90;;;;;;5121683;28;20056;-96
2021/04/24 05:57:15;;;;;;;1999.90;999.90;;;5.30;99.90;;;;;;5122669;28;20058;-96
2021/04/24 05:59:43;;;;;;;1999.90;999.90;;;5.40;99.90;;;;;;5122696;28;20058;-95
2021/04/24 06:02:10;;;;;;;1999.90;999.90;;;5.50;99.90;;;;;;5126122;28;20059;-96
2021/04/24 06:04:37;;;;;;;1999.90;999.90;;;5.60;99.90;;;;;;5123632;28;20153;-96
2021/04/24 06:07:05;;;;;;;1999.90;999.90;;;5.70;99.90;;;;;;5121983;28;20051;-96
2021/04/24 06:09:37;;;;;;;1999.90;999.90;;;5.70;99.90;;;;;;5122106;28;20377;-96
2021/04/24 06:12:06;;;;;;;1999.90;999.90;;;5.80;99.90;;;;;;5120569;28;20052;-92
2021/04/24 06:14:35;;;;;;;1999.90;999.90;;;6.00;99.90;;;;;;5118818;28;20491;-92
2021/04/24 06:17:03;;;;;;;1999.90;999.90;;;6.00;99.90;;;;;;5110129;28;20047;-91
2021/04/24 06:19:31;;;;;;;1999.90;999.90;;;6.10;99.90;;;;;;5109151;28;20059;-93
2021/04/24 06:22:01;;;;;;;1999.90;999.90;;;6.20;99.90;;;;;;5111097;28;20064;-93
2021/04/24 06:24:28;;;;;;;1999.90;999.90;;;6.20;99.90;;;;;;5111870;28;20035;-93
2021/04/24 06:26:55;;;;;;;1999.90;999.90;;;6.30;99.90;;;;;;5117273;28;20067;-93
2021/04/24 06:29:22;;;;;;;1999.90;999.90;;;6.40;99.90;;;;;;5108014;28;20123;-93
2021/04/24 06:31:50;;;;;;;1999.90;999.90;;;6.50;99.90;;;;;;5102748;28;20052;-93
2021/04/24 06:34:18;;;;;;;1999.90;999.90;;;6.60;99.90;;;;;;5117250;28;20051;-93
2021/04/24 06:36:50;;;;;;;1999.90;999.90;;;6.60;99.90;;;;;;5118004;28;20101;-93
2021/04/24 06:39:17;;;;;;;1999.90;999.90;;;6.70;99.90;;;;;;5117062;28;20056;-93
2021/04/24 06:41:44;;;;;;;1999.90;999.90;;;6.80;99.90;;;;;;5110132;28;20052;-93
2021/04/24 06:44:11;;;;;;;1999.90;999.90;;;6.90;99.90;;;;;;5097182;28;20449;-93
2021/04/24 06:46:38;;;;;;;1999.90;999.90;;;7.00;99.90;;;;;;5117692;28;20044;-93
2021/04/24 06:49:06;;;;;;;1999.90;999.90;;;7.00;99.90;;;;;;5115880;28;20100;-93
2021/04/24 06:51:34;;;;;;;1999.90;999.90;;;7.10;99.90;;;;;;5116851;28;20138;-93
2021/04/24 06:54:01;;;;;;;1999.90;999.90;;;7.20;99.90;;;;;;5107788;28;20054;-93
2021/04/24 06:56:29;;;;;;;1999.90;999.90;;;7.30;99.90;;;;;;5109140;28;20052;-93
2021/04/24 06:58:56;;;;;;;1999.90;999.90;;;7.40;99.90;;;;;;5106432;28;20063;-93
2021/04/24 07:01:24;;;;;;;1999.90;999.90;;;7.50;99.90;;;;;;5115165;28;20426;-93
2021/04/24 07:03:52;;;;;;;1999.90;999.90;;;7.60;99.90;;;;;;5114254;28;20043;-93
2021/04/24 07:06:20;;;;;;;1999.90;999.90;;;7.60;99.90;;;;;;5116350;28;20052;-93
2021/04/24 07:08:48;;;;;;;1999.90;999.90;;;7.70;99.90;;;;;;5116783;28;20048;-93
2021/04/24 07:11:15;;;;;;;1999.90;999.90;;;7.80;99.90;;;;;;5115631;28;20118;-93
2021/04/24 07:13:42;;;;;;;1999.90;999.90;;;7.80;99.90;;;;;;5113447;28;20096;-92
2021/04/24 07:16:11;;;;;;;1999.90;999.90;;;7.90;99.90;;;;;;5100804;28;20066;-91
2021/04/24 07:18:41;;;;;;;1999.90;999.90;;;8.10;99.90;;;;;;5108419;28;20515;-92
2021/04/24 07:21:08;;;;;;;1999.90;999.90;;;8.20;99.90;;;;;;5116395;28;20490;-92
2021/04/24 07:23:40;;;;;;;1999.90;999.90;;;8.20;99.90;;;;;;5110955;28;20060;-92
2021/04/24 07:26:09;;;;;;;1999.90;999.90;;;8.30;99.90;;;;;;5116252;28;20062;-92
2021/04/24 07:28:36;;;;;;;1999.90;999.90;;;8.40;99.90;;;;;;5113689;28;20493;-92
2021/04/24 07:31:04;;;;;;;1999.90;999.90;;;8.40;99.90;;;;;;5112070;28;20052;-92
2021/04/24 07:33:31;;;;;;;1999.90;999.90;;;8.50;99.90;;;;;;5107167;28;20503;-92
2021/04/24 07:35:58;;;;;;;1999.90;999.90;;;8.50;99.90;;;;;;5114213;28;20059;-93
2021/04/24 07:38:25;;;;;;;1999.90;999.90;;;8.60;99.90;;;;;;5114473;28;20075;-92
2021/04/24 07:40:53;;;;;;;1999.90;999.90;;;8.70;99.90;;;;;;5115729;28;20052;-92
2021/04/24 07:43:20;;;;;;;1999.90;999.90;;;8.80;99.90;;;;;;5113967;28;20052;-92
2021/04/24 07:45:48;;;;;;;1999.90;999.90;;;8.80;99.90;;;;;;5105858;28;20051;-92
2021/04/24 07:48:18;;;;;;;1999.90;999.90;;;8.80;99.90;;;;;;5108053;28;20044;-92
2021/04/24 07:50:46;;;;;;;1999.90;999.90;;;8.80;99.90;;;;;;5118023;28;20082;-93
2021/04/24 07:53:13;;;;;;;1999.90;999.90;;;8.90;99.90;;;;;;5116970;28;20202;-92
2021/04/24 07:55:40;;;;;;;1999.90;999.90;;;8.90;99.90;;;;;;5104760;28;20068;-92
2021/04/24 07:58:08;;;;;;;1999.90;999.90;;;9.00;99.90;;;;;;5117511;28;20043;-93
2021/04/24 08:00:36;;;;;;;1999.90;999.90;;;8.90;99.90;;;;;;5118402;27;20104;-92
2021/04/24 08:03:04;;;;;;;1999.90;999.90;;;9.00;99.90;;;;;;5122712;28;20048;-93
2021/04/24 08:05:31;;;;;;;1999.90;999.90;;;9.00;99.90;;;;;;5115407;28;20131;-93
2021/04/24 08:08:00;;;;;;;1999.90;999.90;;;9.10;99.90;;;;;;5119408;28;20048;-92
2021/04/24 08:10:27;;;;;;;1999.90;999.90;;;9.20;99.90;;;;;;5120105;28;20082;-92
2021/04/24 08:12:54;;;;;;;1999.90;999.90;;;9.20;99.90;;;;;;5125729;28;20120;-93
2021/04/24 08:15:27;;;;;;;1999.90;999.90;;;9.30;99.90;;;;;;5110301;28;20060;-91
2021/04/24 08:17:55;;;;;;;1999.90;999.90;;;9.30;99.90;;;;;;5113367;28;20081;-92
2021/04/24 08:20:23;;;;;;;1999.90;999.90;;;9.30;99.90;;;;;;5111455;28;20049;-92
2021/04/24 08:22:51;;;;;;;1999.90;999.90;;;9.40;99.00;;;;;;5114551;28;20097;-92
2021/04/24 08:25:18;;;;;;;1999.90;999.90;;;9.50;99.00;;;;;;5113379;28;20043;-92
2021/04/24 08:27:49;;;;;;;1999.90;999.90;;;9.50;99.30;;;;;;5113722;28;20070;-92
2021/04/24 08:30:18;;;;;;;1999.90;999.90;;;9.60;99.10;;;;;;5115868;28;20051;-93
2021/04/24 08:32:47;;;;;;;1999.90;999.90;;;9.60;98.50;;;;;;5112076;28;20104;-93
2021/04/24 08:35:14;;;;;;;1999.90;999.90;;;9.70;97.80;;;;;;5113195;28;20051;-93
2021/04/24 08:37:43;;;;;;;1999.90;999.90;;;9.80;97.80;;;;;;5098712;28;20073;-93
2021/04/24 08:40:13;;;;;;;1999.90;999.90;;;9.80;96.90;;;;;;5107566;28;20055;-93
2021/04/24 08:42:41;;;;;;;1999.90;999.90;;;9.90;96.90;;;;;;5100843;28;20155;-93
2021/04/24 08:45:17;;;;;;;1999.90;999.90;;;10.00;97.30;;;;;;5105485;28;20059;-93
2021/04/24 08:47:47;;;;;;;1999.90;999.90;;;10.10;96.00;;;;;;5114865;28;20058;-94
2021/04/24 08:50:19;;;;;;;1999.90;999.90;;;10.10;95.90;;;;;;5108253;28;20055;-94
2021/04/24 08:52:47;;;;;;;1999.90;999.90;;;10.10;96.00;;;;;;5108395;28;20047;-94
2021/04/24 08:55:17;;;;;;;1999.90;999.90;;;10.20;95.20;;;;;;5109205;28;20097;-94
2021/04/24 08:57:45;;;;;;;1999.90;999.90;;;10.20;95.00;;;;;;5105029;28;20048;-94
2021/04/24 09:00:15;;;;;;;1999.90;999.90;;;10.30;94.60;;;;;;5097062;28;20052;-93
2021/04/24 09:02:43;;;;;;;1999.90;999.90;;;10.40;95.10;;;;;;5107183;28;20135;-90
2021/04/24 09:05:15;;;;;;;1999.90;999.90;;;10.50;94.70;;;;;;5098256;28;20078;-95
2021/04/24 09:07:42;;;;;;;1999.90;999.90;;;10.60;93.40;;;;;;5097950;28;20079;-96
2021/04/24 09:10:15;;;;;;;1999.90;999.90;;;10.60;93.60;;;;;;5097509;28;20044;-96
2021/04/24 09:12:46;;;;;;;1999.90;999.90;;;10.70;94.50;;;;;;5097140;28;20051;-96
2021/04/24 09:15:19;;;;;;;1999.90;999.90;;;10.80;93.20;;;;;;5099015;28;20055;-96
2021/04/24 09:17:51;;;;;;;1999.90;999.90;;;10.80;93.10;;;;;;5098041;28;20052;-96
2021/04/24 09:20:21;;;;;;;1999.90;999.90;;;10.80;94.00;;;;;;5098122;28;20044;-96
2021/04/24 09:23:05;;;;;;;1999.90;999.90;;;10.90;95.20;;;;;;5099248;28;20509;-96
2021/04/24 09:25:36;;;;;;;1999.90;999.90;;;10.90;95.20;;;;;;5109158;28;20048;-96
2021/04/24 09:28:06;;;;;;;1999.90;999.90;;;11.10;94.80;;;;;;5113221;28;20055;-96
2021/04/24 09:30:35;;;;;;;1999.90;999.90;;;11.20;95.10;;;;;;5103044;28;20542;-96
2021/04/24 09:33:06;;;;;;;1999.90;999.90;;;11.30;93.80;;;;;;5101516;28;20082;-96
2021/04/24 09:35:46;;;;;;;1999.90;999.90;;;11.30;93.90;;;;;;5097323;28;20061;-96
2021/04/24 09:38:22;;;;;;;1999.90;999.90;;;11.20;93.90;;;;;;5098977;28;20064;-95
2021/04/24 09:41:09;;;;;;;1999.90;999.90;;;11.30;93.90;;;;;;5095577;28;20052;-96
2021/04/24 09:44:08;;;;;;;1999.90;999.90;;;11.40;94.00;;;;;;5096888;28;20052;-96
2021/04/24 09:46:49;;;;;;;1999.90;999.90;;;11.50;93.90;;;;;;5095422;28;20055;-95
2021/04/24 09:49:20;;;;;;;1999.90;999.90;;;11.60;93.20;;;;;;5096013;28;20044;-96
2021/04/24 09:51:51;;;;;;;1999.90;999.90;;;11.70;92.60;;;;;;5095320;28;20063;-96
2021/04/24 09:54:21;;;;;;;1999.90;999.90;;;11.60;93.30;;;;;;5095184;28;20048;-96
2021/04/24 09:57:02;;;;;;;1999.90;999.90;;;11.80;93.40;;;;;;5095632;28;20048;-95
2021/04/24 09:59:30;;;;;;;1999.90;999.90;;;11.90;92.60;;;;;;5095332;28;20044;-96
2021/04/24 10:01:59;;;;;;;1999.90;999.90;;;12.00;92.60;;;;;;5095150;28;20142;-96
2021/04/24 10:04:26;;;;;;;1999.90;999.90;;;12.00;92.00;;;;;;5095469;28;20044;-96
2021/04/24 10:06:55;;;;;;;1999.90;999.90;;;12.10;92.10;;;;;;5096043;28;20079;-96
2021/04/24 10:09:25;;;;;;;1999.90;999.90;;;12.20;91.60;;;;;;5095237;28;20055;-96
2021/04/24 10:12:08;;;;;;;1999.90;999.90;;;12.20;89.70;;;;;;5095792;28;20078;-96
2021/04/24 10:14:37;;;;;;;1999.90;999.90;;;12.10;91.00;;;;;;5095743;28;20048;-96
2021/04/24 10:17:06;;;;;;;1999.90;999.90;;;12.20;90.40;;;;;;5095795;28;20055;-96
2021/04/24 10:19:35;;;;;;;1999.90;999.90;;;12.20;89.80;;;;;;5095211;28;20489;-95
2021/04/24 10:22:06;;;;;;;1999.90;999.90;;;12.20;90.90;;;;;;5095642;28;20135;-95
2021/04/24 10:24:33;;;;;;;1999.90;999.90;;;12.20;91.80;;;;;;5098706;28;20134;-94
2021/04/24 10:27:00;;;;;;;1999.90;999.90;;;12.20;91.70;;;;;;5098766;28;20076;-94
2021/04/24 10:29:28;;;;;;;1999.90;999.90;;;12.10;92.00;;;;;;5098377;28;20044;-94
2021/04/24 10:31:56;;;;;;;1999.90;999.90;;;12.20;92.70;;;;;;5099005;28;20071;-94
2021/04/24 10:34:23;;;;;;;1999.90;999.90;;;12.20;92.40;;;;;;5098267;28;20123;-94
2021/04/24 10:36:51;;;;;;;1999.90;999.90;;;12.30;92.30;;;;;;5098706;28;20048;-95
2021/04/24 10:39:22;;;;;;;1999.90;999.90;;;12.30;92.60;;;;;;5098294;28;20075;-96
2021/04/24 10:41:57;;;;;;;1999.90;999.90;;;12.40;93.20;;;;;;5098603;28;20044;-95
2021/04/24 10:44:42;;;;;;;1999.90;999.90;;;12.60;92.30;;;;;;5099066;28;20121;-95
2021/04/24 10:47:10;;;;;;;1999.90;999.90;;;12.70;91.60;;;;;;5098216;28;20048;-96
2021/04/24 10:49:53;;;;;;;1999.90;999.90;;;12.70;91.50;;;;;;5098519;28;20052;-94
2021/04/24 10:52:22;;;;;;;1999.90;999.90;;;12.80;91.30;;;;;;5097944;28;20052;-95
2021/04/24 10:55:23;;;;;;;1999.90;999.90;;;12.90;92.20;;;;;;5097773;28;20068;-96
2021/04/24 10:57:53;;;;;;;1999.90;999.90;;;13.00;91.40;;;;;;5097913;28;20052;-95
2021/04/24 11:00:23;;;;;;;1999.90;999.90;;;13.00;91.00;;;;;;5098663;28;20078;-95
2021/04/24 11:02:53;;;;;;;1999.90;999.90;;;13.00;90.30;;;;;;5098534;28;20418;-95
2021/04/24 11:05:27;;;;;;;1999.90;999.90;;;12.90;89.90;;;;;;5097714;28;20078;-95
2021/04/24 11:08:34;;;;;;;1999.90;999.90;;;12.80;89.00;;;;;;5097653;28;20082;-95
2021/04/24 11:11:04;;;;;;;1999.90;999.90;;;12.80;89.60;;;;;;5098560;28;20127;-95
2021/04/24 11:13:34;;;;;;;1999.90;999.90;;;12.80;90.40;;;;;;5098303;28;20136;-95
2021/04/24 11:16:03;;;;;;;1999.90;999.90;;;12.80;90.20;;;;;;5108337;28;20071;-93
2021/04/24 11:18:32;;;;;;;1999.90;999.90;;;12.70;90.10;;;;;;5117653;28;20093;-92
2021/04/24 11:21:02;;;;;;;1999.90;999.90;;;12.80;90.70;;;;;;5117813;28;20058;-93
2021/04/24 11:23:47;;;;;;;1999.90;999.90;;;12.80;90.80;;;;;;5114644;28;20050;-93
2021/04/24 11:26:19;;;;;;;1999.90;999.90;;;12.80;90.70;;;;;;5106766;28;20053;-93
2021/04/24 11:29:17;;;;;;;1999.90;999.90;;;12.90;90.70;;;;;;5116590;28;20059;-92
2021/04/24 11:32:10;;;;;;;1999.90;999.90;;;12.90;90.80;;;;;;5120276;28;20048;-96
2021/04/24 11:34:48;;;;;;;1999.90;999.90;;;12.90;90.80;;;;;;5118591;28;20051;-95
2021/04/24 11:37:24;;;;;;;1999.90;999.90;;;12.90;91.10;;;;;;5118127;28;20055;-95
2021/04/24 11:40:25;;;;;;;1999.90;999.90;;;13.00;91.80;;;;;;5118341;28;20047;-95
2021/04/24 11:43:08;;;;;;;1999.90;999.90;;;13.20;91.80;;;;;;5118186;28;20059;-95
2021/04/24 11:45:52;;;;;;;1999.90;999.90;;;13.30;91.10;;;;;;5119624;28;20101;-95
2021/04/24 11:48:55;;;;;;;1999.90;999.90;;;13.10;90.70;;;;;;5119118;28;20071;-96
2021/04/24 11:51:31;;;;;;;1999.90;999.90;;;13.10;90.60;;;;;;5117522;28;20067;-95
2021/04/24 11:54:04;;;;;;;1999.90;999.90;;;13.20;90.80;;;;;;5117924;28;20069;-95
2021/04/24 11:56:32;;;;;;;1999.90;999.90;;;13.20;91.40;;;;;;5118158;28;20075;-95
2021/04/24 11:59:01;;;;;;;1999.90;999.90;;;13.20;90.30;;;;;;5117911;28;20055;-96
2021/04/24 12:01:31;;;;;;;1999.90;999.90;;;13.20;90.30;;;;;;5117460;28;20047;-94
2021/04/24 12:04:01;;;;;;;1999.90;999.90;;;13.20;90.50;;;;;;5117048;28;20048;-95
2021/04/24 12:06:37;;;;;;;1999.90;999.90;;;13.30;89.80;;;;;;5118034;28;20389;-95
2021/04/24 12:09:06;;;;;;;1999.90;999.90;;;13.30;90.20;;;;;;5116804;28;20051;-95
2021/04/24 12:11:34;;;;;;;1999.90;999.90;;;13.30;88.60;;;;;;5117841;28;20052;-91
2021/04/24 12:14:02;;;;;;;1999.90;999.90;;;13.20;89.50;;;;;;5116064;28;20043;-92
2021/04/24 12:16:41;;;;;;;1999.90;999.90;;;13.30;89.30;;;;;;5113224;28;20135;-92
2021/04/24 12:19:32;;;;;;;1999.90;999.90;;;13.30;88.10;;;;;;5104036;28;20051;-92